createdAt,value
2019-02-28T00:01:38.730Z,6.45
2019-02-28T00:04:08.269Z,7.35
2019-02-28T00:06:37.883Z,7.28
2019-02-28T00:09:11.172Z,6.70
2019-02-28T00:11:40.850Z,7.60
2019-02-28T00:14:10.412Z,8.70
2019-02-28T00:16:39.939Z,7.83
2019-02-28T00:19:09.579Z,7.20
2019-02-28T00:21:40.642Z,7.70
2019-02-28T00:24:10.450Z,8.40
2019-02-28T00:26:42.875Z,8.38
2019-02-28T00:29:11.263Z,7.78
2019-02-28T00:31:40.827Z,8.13
2019-02-28T00:34:10.435Z,8.08
2019-02-28T00:36:40.006Z,9.70
2019-02-28T00:39:09.599Z,8.85
2019-02-28T00:41:43.134Z,9.48
2019-02-28T00:44:10.356Z,9.50
2019-02-28T00:46:44.076Z,8.80
2019-02-28T00:49:11.148Z,8.73
2019-02-28T00:51:40.675Z,9.18
2019-02-28T00:54:10.356Z,10.13
2019-02-28T00:56:39.934Z,8.30
2019-02-28T00:59:09.534Z,8.35
2019-02-28T01:01:39.072Z,8.88
2019-02-28T01:04:08.642Z,8.30
2019-02-28T01:06:41.686Z,6.80
2019-02-28T01:09:09.769Z,10.00
2019-02-28T01:11:39.358Z,8.60
2019-02-28T01:14:08.923Z,8.25
2019-02-28T01:16:38.600Z,8.53
2019-02-28T01:19:09.028Z,9.40
2019-02-28T01:21:39.327Z,8.83
2019-02-28T01:24:08.803Z,8.50
2019-02-28T01:26:38.472Z,8.20
2019-02-28T01:29:07.985Z,8.35
2019-02-28T01:31:37.549Z,9.45
2019-02-28T01:34:07.127Z,8.83
2019-02-28T01:36:36.778Z,8.55
2019-02-28T01:39:08.305Z,8.53
2019-02-28T01:41:37.896Z,8.23
2019-02-28T01:44:07.450Z,7.78
2019-02-28T01:46:36.989Z,8.90
2019-02-28T01:49:06.573Z,8.33
2019-02-28T01:51:36.841Z,7.95
2019-02-28T01:54:06.349Z,8.80
2019-02-28T01:56:36.976Z,8.95
2019-02-28T01:59:07.572Z,9.83
2019-02-28T02:01:37.076Z,9.13
2019-02-28T02:04:06.675Z,9.13
2019-02-28T02:06:36.186Z,9.13
2019-02-28T02:09:08.160Z,9.83
2019-02-28T02:11:38.159Z,9.33
2019-02-28T02:14:11.062Z,9.75
2019-02-28T02:16:39.031Z,9.28
2019-02-28T02:19:49.401Z,9.08
2019-02-28T02:22:17.905Z,9.68
2019-02-28T02:24:47.536Z,9.70
2019-02-28T02:27:19.471Z,9.88
2019-02-28T02:29:48.287Z,10.78
2019-02-28T02:32:17.762Z,10.58
2019-02-28T02:34:47.358Z,10.05
2019-02-28T02:37:16.998Z,10.85
2019-02-28T02:39:50.264Z,10.58
2019-02-28T02:42:17.791Z,10.63
2019-02-28T02:44:47.375Z,10.50
2019-02-28T02:47:17.005Z,9.48
2019-02-28T02:49:46.546Z,11.30
2019-02-28T02:52:16.066Z,11.97
2019-02-28T02:54:45.626Z,12.25
2019-02-28T02:57:15.758Z,12.65
2019-02-28T02:59:45.468Z,10.32
2019-02-28T03:02:15.034Z,11.93
2019-02-28T03:04:44.582Z,11.35
2019-02-28T03:07:14.141Z,12.25
2019-02-28T03:09:44.797Z,11.97
2019-02-28T03:12:14.603Z,13.03
2019-02-28T03:14:44.125Z,12.10
2019-02-28T03:17:13.685Z,11.85
2019-02-28T03:19:43.293Z,12.33
2019-02-28T03:22:12.859Z,12.40
2019-02-28T03:24:42.396Z,13.72
2019-02-28T03:27:18.520Z,13.53
2019-02-28T03:29:43.917Z,13.70
2019-02-28T03:32:14.444Z,12.85
2019-02-28T03:34:55.357Z,12.18
2019-02-28T03:37:15.173Z,13.50
2019-02-28T03:39:44.791Z,13.78
2019-02-28T03:42:14.425Z,13.18
2019-02-28T03:44:43.932Z,13.43
2019-02-28T03:47:13.487Z,12.98
2019-02-28T03:49:48.538Z,13.93
2019-02-28T03:52:14.107Z,14.10
2019-02-28T03:54:43.660Z,13.90
2019-02-28T03:57:13.356Z,14.65
2019-02-28T03:59:42.992Z,14.50
2019-02-28T04:02:12.609Z,15.03
2019-02-28T04:04:48.775Z,15.30
2019-02-28T04:07:15.988Z,15.60
2019-02-28T04:09:45.325Z,14.33
2019-02-28T04:12:14.969Z,15.58
2019-02-28T04:14:44.680Z,15.60
2019-02-28T04:17:14.225Z,16.37
2019-02-28T04:19:43.752Z,14.65
2019-02-28T04:22:13.296Z,14.35
2019-02-28T04:24:46.303Z,15.00
2019-02-28T04:27:14.123Z,16.32
2019-02-28T04:29:43.750Z,15.88
2019-02-28T04:32:13.351Z,15.98
2019-02-28T04:34:45.776Z,16.97
2019-02-28T04:37:14.137Z,16.80
2019-02-28T04:39:43.823Z,16.95
2019-02-28T04:42:13.357Z,18.00
2019-02-28T04:44:44.154Z,18.12
2019-02-28T04:47:13.839Z,18.20
2019-02-28T04:49:43.446Z,17.65
2019-02-28T04:52:13.030Z,18.07
2019-02-28T04:54:42.560Z,19.48
2019-02-28T04:57:12.476Z,21.20
2019-02-28T04:59:42.568Z,17.67
2019-02-28T05:02:12.262Z,19.15
2019-02-28T05:04:42.801Z,20.48
2019-02-28T05:07:12.589Z,20.32
2019-02-28T05:09:45.313Z,20.88
2019-02-28T05:12:14.015Z,21.02
2019-02-28T05:14:43.736Z,20.80
2019-02-28T05:17:13.367Z,23.02
2019-02-28T05:19:43.055Z,24.57
2019-02-28T05:22:12.763Z,21.87
2019-02-28T05:24:43.488Z,23.05
2019-02-28T05:27:13.491Z,21.68
2019-02-28T05:29:43.895Z,24.10
2019-02-28T05:32:14.391Z,26.37
2019-02-28T05:34:50.983Z,22.80
2019-02-28T05:37:20.481Z,27.40
2019-02-28T05:39:50.082Z,24.55
2019-02-28T05:42:20.296Z,25.92
2019-02-28T05:44:51.267Z,26.70
2019-02-28T05:47:20.912Z,25.48
2019-02-28T05:49:56.527Z,26.00
2019-02-28T05:52:33.696Z,27.40
2019-02-28T05:55:10.449Z,26.77
2019-02-28T05:57:43.288Z,28.30
2019-02-28T06:00:13.890Z,28.15
2019-02-28T06:02:43.575Z,27.80
2019-02-28T06:05:13.251Z,29.60
2019-02-28T06:07:42.875Z,27.62
2019-02-28T06:10:12.700Z,28.52
2019-02-28T06:12:43.947Z,26.33
2019-02-28T06:15:13.843Z,30.55
2019-02-28T06:17:43.482Z,26.85
2019-02-28T06:20:16.324Z,29.25
2019-02-28T06:22:44.730Z,28.05
2019-02-28T06:25:22.575Z,29.65
2019-02-28T06:27:50.355Z,29.60
2019-02-28T06:30:17.339Z,32.15
2019-02-28T06:32:47.060Z,31.65
2019-02-28T06:35:20.232Z,29.02
2019-02-28T06:37:51.837Z,29.23
2019-02-28T06:40:21.650Z,30.17
2019-02-28T06:42:51.300Z,32.73
2019-02-28T06:45:21.049Z,29.05
2019-02-28T06:47:50.766Z,34.83
2019-02-28T06:50:20.384Z,31.90
2019-02-28T06:52:50.050Z,31.20
2019-02-28T06:55:22.929Z,34.18
2019-02-28T06:57:52.586Z,31.93
2019-02-28T07:00:22.473Z,32.13
2019-02-28T07:02:52.098Z,35.40
2019-02-28T07:05:26.550Z,33.23
2019-02-28T07:07:56.986Z,32.45
2019-02-28T07:10:26.631Z,34.27
2019-02-28T07:12:56.262Z,37.08
2019-02-28T07:15:25.854Z,37.88
2019-02-28T07:17:55.780Z,36.42
2019-02-28T07:20:25.562Z,36.88
2019-02-28T07:22:55.858Z,37.40
2019-02-28T07:25:25.511Z,36.20
2019-02-28T07:27:55.246Z,36.70
2019-02-28T07:30:25.028Z,35.28
2019-02-28T07:32:54.770Z,39.98
2019-02-28T07:35:24.398Z,35.85
2019-02-28T07:37:54.777Z,41.33
2019-02-28T07:40:24.647Z,38.45
2019-02-28T07:42:54.927Z,38.35
2019-02-28T07:45:24.650Z,39.60
2019-02-28T07:47:54.253Z,36.38
2019-02-28T07:50:23.943Z,43.23
2019-02-28T07:52:53.509Z,38.33
2019-02-28T07:55:23.203Z,40.88
2019-02-28T07:57:56.266Z,42.25
2019-02-28T08:00:24.524Z,41.40
2019-02-28T08:02:54.134Z,41.13
2019-02-28T08:05:30.101Z,40.75
2019-02-28T08:07:55.199Z,40.00
2019-02-28T08:10:30.390Z,40.30
2019-02-28T08:13:03.021Z,45.35
2019-02-28T08:15:33.897Z,44.30
2019-02-28T08:18:05.689Z,44.90
2019-02-28T08:20:35.141Z,39.53
2019-02-28T08:23:04.901Z,44.38
2019-02-28T08:25:34.510Z,45.55
2019-02-28T08:28:04.442Z,44.95
2019-02-28T08:30:34.382Z,44.63
2019-02-28T08:33:04.199Z,45.55
2019-02-28T08:35:34.825Z,47.75
2019-02-28T08:38:06.855Z,44.08
2019-02-28T08:40:36.875Z,44.23
2019-02-28T08:43:06.494Z,46.45
2019-02-28T08:45:36.988Z,45.92
2019-02-28T08:48:06.727Z,42.65
2019-02-28T08:50:36.623Z,46.50
2019-02-28T08:53:06.683Z,48.65
2019-02-28T08:55:38.447Z,44.98
2019-02-28T08:58:07.798Z,49.40
2019-02-28T09:00:37.794Z,50.63
2019-02-28T09:03:07.666Z,51.02
2019-02-28T09:05:40.656Z,46.05
2019-02-28T09:08:10.451Z,44.58
2019-02-28T09:10:49.709Z,45.58
2019-02-28T09:13:19.531Z,50.00
2019-02-28T09:15:50.682Z,48.25
2019-02-28T09:18:20.567Z,49.03
2019-02-28T09:20:50.371Z,45.35
2019-02-28T09:23:20.031Z,46.50
2019-02-28T09:25:49.650Z,44.30
2019-02-28T09:28:20.843Z,48.65
2019-02-28T09:30:51.117Z,46.45
2019-02-28T09:33:23.395Z,48.38
2019-02-28T09:35:52.043Z,47.65
2019-02-28T09:38:21.730Z,45.50
2019-02-28T09:40:52.210Z,46.90
2019-02-28T09:43:41.466Z,46.45
2019-02-28T09:47:11.074Z,50.12
2019-02-28T09:50:19.261Z,50.08
2019-02-28T09:53:24.479Z,45.05
2019-02-28T09:58:38.848Z,46.55
2019-02-28T10:01:08.708Z,46.10
2019-02-28T10:03:38.511Z,49.23
2019-02-28T10:06:08.201Z,39.85
2019-02-28T10:08:38.083Z,45.05
2019-02-28T10:11:07.883Z,41.77
2019-02-28T10:13:37.632Z,45.63
2019-02-28T10:16:08.389Z,40.28
2019-02-28T10:18:39.005Z,45.48
2019-02-28T10:21:09.435Z,47.55
2019-02-28T10:23:39.220Z,47.23
2019-02-28T10:26:09.147Z,46.60
2019-02-28T10:28:39.535Z,43.45
2019-02-28T10:31:09.377Z,44.30
2019-02-28T10:33:39.050Z,45.15
2019-02-28T10:36:09.218Z,42.35
2019-02-28T10:38:40.513Z,43.10
2019-02-28T10:41:10.176Z,44.45
2019-02-28T10:43:39.840Z,42.90
2019-02-28T10:46:09.634Z,45.05
2019-02-28T10:48:51.759Z,40.75
2019-02-28T10:51:21.519Z,42.15
2019-02-28T10:53:51.574Z,41.98
2019-02-28T10:57:20.962Z,43.40
2019-02-28T11:07:15.968Z,43.15
2019-02-28T11:09:45.726Z,44.18
2019-02-28T11:12:19.768Z,43.80
2019-02-28T11:14:46.886Z,42.10
2019-02-28T11:17:16.641Z,41.53
2019-02-28T11:19:48.531Z,42.10
2019-02-28T11:22:18.757Z,39.75
2019-02-28T11:24:49.276Z,43.55
2019-02-28T11:27:20.924Z,43.10
2019-02-28T11:29:50.508Z,40.33
2019-02-28T11:32:20.605Z,39.98
2019-02-28T11:34:50.285Z,43.00
2019-02-28T11:37:20.054Z,42.13
2019-02-28T11:39:50.054Z,41.50
2019-02-28T11:42:19.817Z,42.75
2019-02-28T11:44:49.553Z,42.40
2019-02-28T11:47:27.801Z,41.15
2019-02-28T11:50:00.331Z,41.35
2019-02-28T11:52:28.977Z,44.08
2019-02-28T11:54:58.703Z,41.95
2019-02-28T11:57:28.455Z,43.87
2019-02-28T12:00:00.440Z,43.08
2019-02-28T12:02:31.653Z,46.48
2019-02-28T12:05:00.979Z,44.25
2019-02-28T12:07:34.721Z,41.98
2019-02-28T12:10:02.208Z,42.88
2019-02-28T12:12:32.150Z,43.98
2019-02-28T12:15:02.696Z,43.28
2019-02-28T12:17:33.840Z,44.90
2019-02-28T12:20:03.959Z,43.70
2019-02-28T12:22:33.679Z,45.73
2019-02-28T12:25:04.563Z,42.50
2019-02-28T12:27:37.532Z,46.02
2019-02-28T12:30:10.105Z,46.98
2019-02-28T12:32:45.531Z,42.95
2019-02-28T12:35:15.422Z,46.65
2019-02-28T12:37:45.344Z,43.80
2019-02-28T12:40:17.224Z,45.67
2019-02-28T12:42:47.143Z,42.05
2019-02-28T12:45:21.191Z,41.80
2019-02-28T12:47:50.790Z,37.83
2019-02-28T12:50:20.656Z,41.70
2019-02-28T12:52:50.369Z,46.05
2019-02-28T12:55:20.003Z,43.42
2019-02-28T12:57:51.636Z,43.25
2019-02-28T13:00:24.116Z,42.33
2019-02-28T13:02:54.221Z,44.20
2019-02-28T13:05:24.013Z,41.58
2019-02-28T13:07:53.799Z,41.85
2019-02-28T13:10:27.960Z,43.17
2019-02-28T13:13:05.786Z,39.63
2019-02-28T13:15:27.577Z,39.23
2019-02-28T13:17:57.446Z,39.00
2019-02-28T13:20:32.189Z,36.20
2019-02-28T13:23:00.987Z,38.92
2019-02-28T13:25:30.494Z,42.38
2019-02-28T13:28:00.193Z,37.48
2019-02-28T13:30:29.985Z,40.88
2019-02-28T13:32:59.596Z,44.55
2019-02-28T13:35:31.032Z,41.15
2019-02-28T13:38:00.844Z,43.40
2019-02-28T13:40:30.653Z,41.25
2019-02-28T13:43:01.854Z,41.83
2019-02-28T13:45:32.016Z,42.25
2019-02-28T13:48:03.394Z,41.28
2019-02-28T13:50:33.608Z,40.98
2019-02-28T13:53:17.085Z,45.50
2019-02-28T13:55:36.759Z,41.28
2019-02-28T13:58:06.715Z,39.53
2019-02-28T14:00:43.698Z,40.80
2019-02-28T14:03:09.684Z,41.33
2019-02-28T14:05:41.549Z,41.20
2019-02-28T14:08:14.808Z,42.75
2019-02-28T14:10:44.877Z,39.27
2019-02-28T14:13:14.684Z,44.08
2019-02-28T14:15:48.080Z,44.85
2019-02-28T14:18:16.884Z,42.08
2019-02-28T14:20:49.100Z,41.60
2019-02-28T14:23:20.729Z,44.35
2019-02-28T14:25:50.561Z,40.95
2019-02-28T14:28:20.424Z,42.40
2019-02-28T14:30:50.235Z,41.10
2019-02-28T14:33:20.781Z,38.80
2019-02-28T14:35:50.666Z,39.78
2019-02-28T14:38:20.985Z,43.83
2019-02-28T14:40:52.747Z,43.68
2019-02-28T14:43:22.016Z,42.93
2019-02-28T14:45:51.739Z,47.62
2019-02-28T14:48:23.691Z,46.42
2019-02-28T14:50:54.793Z,45.38
2019-02-28T14:53:24.478Z,47.90
2019-02-28T14:55:54.339Z,48.50
2019-02-28T14:58:24.169Z,48.78
2019-02-28T15:00:53.822Z,50.63
2019-02-28T15:03:23.548Z,47.48
2019-02-28T15:05:55.563Z,50.98
2019-02-28T15:08:26.991Z,49.05
2019-02-28T15:10:56.395Z,47.78
2019-02-28T15:13:26.032Z,54.05
2019-02-28T15:15:55.829Z,47.75
2019-02-28T15:18:25.438Z,48.33
2019-02-28T15:20:55.387Z,50.75
2019-02-28T15:23:25.167Z,49.75
2019-02-28T15:25:55.080Z,46.63
2019-02-28T15:28:24.818Z,49.20
2019-02-28T15:30:54.666Z,49.75
2019-02-28T15:33:27.374Z,51.48
2019-02-28T15:35:56.817Z,47.85
2019-02-28T15:39:20.416Z,50.63
2019-02-28T15:41:50.433Z,52.73
2019-02-28T15:44:20.113Z,50.03
2019-02-28T15:46:49.658Z,51.05
2019-02-28T15:49:19.212Z,52.93
2019-02-28T15:51:48.869Z,50.55
2019-02-28T15:54:18.462Z,52.70
2019-02-28T15:56:51.821Z,51.28
2019-02-28T15:59:20.857Z,53.60
2019-02-28T16:01:50.540Z,56.92
2019-02-28T16:04:20.204Z,55.98
2019-02-28T16:06:56.390Z,53.70
2019-02-28T16:09:28.950Z,53.30
2019-02-28T16:11:58.648Z,56.90
2019-02-28T16:17:33.533Z,56.02
2019-02-28T16:20:10.764Z,53.73
2019-02-28T16:22:43.587Z,54.83
2019-02-28T16:25:16.058Z,54.93
2019-02-28T16:27:48.466Z,55.67
2019-02-28T16:30:18.190Z,57.73
2019-02-28T16:32:49.156Z,54.75
2019-02-28T16:35:19.100Z,46.95
2019-02-28T16:37:49.003Z,53.70
2019-02-28T16:40:20.746Z,49.30
2019-02-28T16:42:50.658Z,53.90
2019-02-28T16:45:33.403Z,54.75
2019-02-28T16:48:05.851Z,52.80
2019-02-28T16:50:35.581Z,53.50
2019-02-28T16:53:05.647Z,53.42
2019-02-28T16:55:35.445Z,51.42
2019-02-28T16:58:05.265Z,54.35
2019-02-28T17:00:35.047Z,56.30
2019-02-28T17:03:07.303Z,49.20
2019-02-28T17:05:36.611Z,51.18
2019-02-28T17:08:12.373Z,52.33
2019-02-28T17:10:43.419Z,50.58
2019-02-28T17:13:30.445Z,47.00
2019-02-28T17:16:21.943Z,50.23
2019-02-28T17:18:53.510Z,53.60
2019-02-28T17:21:23.025Z,51.15
2019-02-28T17:23:52.695Z,51.13
2019-02-28T17:26:41.989Z,44.33
2019-02-28T17:29:28.909Z,53.00
2019-02-28T17:31:58.703Z,47.00
2019-02-28T17:34:28.299Z,49.25
2019-02-28T17:37:30.493Z,51.73
2019-02-28T17:40:00.041Z,49.73
2019-02-28T17:42:29.702Z,51.20
2019-02-28T17:45:16.323Z,46.75
2019-02-28T17:48:28.394Z,51.65
2019-02-28T17:51:40.005Z,45.08
2019-02-28T17:54:37.617Z,46.50
2019-02-28T17:57:53.969Z,49.53
2019-02-28T18:01:05.650Z,49.88
2019-02-28T18:04:27.169Z,50.92
2019-02-28T18:07:34.220Z,49.53
2019-02-28T18:10:25.185Z,50.65
2019-02-28T18:13:35.300Z,47.25
2019-02-28T18:16:21.631Z,48.95
2019-02-28T18:19:33.611Z,47.85
2019-02-28T18:22:42.555Z,47.45
2019-02-28T18:25:45.052Z,49.35
2019-02-28T18:28:41.793Z,49.23
2019-02-28T18:31:13.161Z,48.83
2019-02-28T18:33:54.712Z,51.88
2019-02-28T18:36:26.629Z,50.78
2019-02-28T18:38:56.335Z,48.60
2019-02-28T18:41:26.013Z,50.90
2019-02-28T18:43:55.831Z,47.43
2019-02-28T18:46:25.569Z,49.50
2019-02-28T18:48:55.707Z,57.78
2019-02-28T18:51:25.374Z,53.87
2019-02-28T18:53:55.052Z,50.28
2019-02-28T18:56:24.668Z,51.45
2019-02-28T18:58:54.328Z,50.05
2019-02-28T19:01:23.989Z,50.73
2019-02-28T19:03:53.907Z,53.35
2019-02-28T19:06:23.574Z,52.50
2019-02-28T19:08:53.309Z,56.08
2019-02-28T19:11:24.970Z,55.25
2019-02-28T19:13:58.203Z,50.05
2019-02-28T19:16:28.509Z,54.13
2019-02-28T19:18:58.892Z,52.90
2019-02-28T19:21:43.553Z,51.18
2019-02-28T19:24:13.612Z,54.20
2019-02-28T19:26:43.842Z,51.02
2019-02-28T19:29:14.096Z,56.73
2019-02-28T19:31:43.954Z,52.73
2019-02-28T19:34:13.640Z,54.75
2019-02-28T19:36:44.305Z,52.40
2019-02-28T19:39:14.150Z,53.70
2019-02-28T19:41:43.875Z,52.60
2019-02-28T19:44:14.151Z,53.68
2019-02-28T19:46:43.881Z,48.78
2019-02-28T19:49:14.493Z,52.53
2019-02-28T19:51:44.511Z,54.70
2019-02-28T19:54:14.173Z,53.48
2019-02-28T19:57:07.034Z,50.52
2019-02-28T19:59:37.476Z,53.00
2019-02-28T20:02:07.764Z,56.08
2019-02-28T20:04:38.556Z,51.40
2019-02-28T20:07:09.236Z,58.25
2019-02-28T20:09:40.176Z,52.40
2019-02-28T20:12:09.985Z,55.50
2019-02-28T20:14:40.621Z,52.65
2019-02-28T20:17:11.351Z,54.65
2019-02-28T20:19:41.572Z,56.08
2019-02-28T20:22:12.737Z,56.55
2019-02-28T20:24:43.331Z,54.53
2019-02-28T20:27:36.449Z,57.15
2019-02-28T20:30:39.453Z,55.55
2019-02-28T20:33:09.582Z,57.27
2019-02-28T20:36:24.899Z,56.77
2019-02-28T20:39:37.065Z,54.42
2019-02-28T20:42:08.027Z,55.63
2019-02-28T20:44:40.300Z,61.80
2019-02-28T20:47:10.671Z,61.28
2019-02-28T20:49:40.941Z,58.83
2019-02-28T20:52:11.324Z,56.63
2019-02-28T20:54:40.981Z,59.00
2019-02-28T20:57:10.679Z,55.30
2019-02-28T20:59:40.426Z,58.35
2019-02-28T21:02:10.209Z,61.37
2019-02-28T21:04:39.991Z,54.95
2019-02-28T21:07:09.818Z,55.45
2019-02-28T21:09:44.867Z,56.63
2019-02-28T21:12:14.732Z,53.45
2019-02-28T21:14:45.568Z,53.50
2019-02-28T21:17:29.248Z,53.87
2019-02-28T21:20:09.192Z,54.73
2019-02-28T21:22:38.996Z,49.33
2019-02-28T21:25:13.805Z,52.93
2019-02-28T21:27:51.651Z,52.73
2019-02-28T21:30:23.824Z,47.53
2019-02-28T21:32:54.132Z,46.68
2019-02-28T21:35:26.918Z,44.30
2019-02-28T21:38:02.700Z,47.73
2019-02-28T21:40:32.512Z,45.70
2019-02-28T21:47:01.552Z,44.18
2019-02-28T21:49:35.166Z,45.50
2019-02-28T21:52:05.689Z,41.08
2019-02-28T21:54:41.496Z,43.87
2019-02-28T21:57:20.816Z,43.78
2019-02-28T21:59:50.703Z,42.17
2019-02-28T22:02:20.559Z,42.83
2019-02-28T22:04:50.207Z,43.58
2019-02-28T22:07:19.892Z,42.58
2019-02-28T22:09:49.608Z,40.43
2019-02-28T22:12:34.634Z,39.80
2019-02-28T22:15:04.381Z,37.58
2019-02-28T22:17:34.332Z,40.40
2019-02-28T22:20:04.348Z,37.35
2019-02-28T22:22:34.223Z,39.05
2019-02-28T22:25:04.366Z,37.00
2019-02-28T22:27:34.126Z,34.27
2019-02-28T22:30:16.130Z,36.45
2019-02-28T22:32:50.278Z,37.48
2019-02-28T22:35:24.594Z,38.28
2019-02-28T22:37:54.188Z,34.78
2019-02-28T22:40:23.871Z,37.48
2019-02-28T22:42:55.486Z,36.77
2019-02-28T22:45:25.898Z,38.10
2019-02-28T22:47:55.612Z,38.20
2019-02-28T22:50:32.455Z,34.20
2019-02-28T22:53:03.134Z,35.80
2019-02-28T22:55:32.741Z,33.50
2019-02-28T22:58:10.148Z,34.30
2019-02-28T23:00:50.241Z,35.00
2019-02-28T23:03:19.800Z,33.42
2019-02-28T23:05:49.292Z,36.42
2019-02-28T23:08:19.077Z,33.30
2019-02-28T23:10:49.078Z,33.20
2019-02-28T23:13:18.803Z,35.33
2019-02-28T23:15:48.681Z,31.95
2019-02-28T23:18:18.255Z,31.35
2019-02-28T23:20:48.336Z,33.75
2019-02-28T23:23:18.197Z,31.62
2019-02-28T23:25:48.227Z,32.67
2019-02-28T23:28:26.386Z,32.28
2019-02-28T23:31:25.812Z,35.70
2019-02-28T23:34:01.246Z,34.75
2019-02-28T23:36:27.815Z,35.90
2019-02-28T23:38:58.011Z,35.20
2019-02-28T23:41:46.106Z,35.55
2019-02-28T23:44:16.815Z,34.98
2019-02-28T23:46:46.506Z,35.30
2019-02-28T23:49:18.702Z,31.90
2019-02-28T23:51:48.416Z,35.55
2019-02-28T23:54:18.082Z,34.03
2019-02-28T23:56:51.628Z,34.20
2019-02-28T23:59:21.240Z,31.57
